createdAt,value
2019-05-11T00:00:55.731Z,6.33
2019-05-11T00:03:26.759Z,6.07
2019-05-11T00:05:57.972Z,9.50
2019-05-11T00:08:41.139Z,6.23
2019-05-11T00:11:12.488Z,7.27
2019-05-11T00:13:43.520Z,4.20
2019-05-11T00:16:14.784Z,6.13
2019-05-11T00:18:45.844Z,5.90
2019-05-11T00:21:17.475Z,8.53
2019-05-11T00:23:48.515Z,5.43
2019-05-11T00:26:19.975Z,5.33
2019-05-11T00:28:51.065Z,5.00
2019-05-11T00:31:23.269Z,4.20
2019-05-11T00:33:54.359Z,9.00
2019-05-11T00:36:25.573Z,4.67
2019-05-11T00:38:56.644Z,9.43
2019-05-11T00:41:27.971Z,4.83
2019-05-11T00:43:59.024Z,5.27
2019-05-11T00:46:30.359Z,5.70
2019-05-11T00:49:01.719Z,6.37
2019-05-11T00:51:32.950Z,5.87
2019-05-11T00:54:04.029Z,12.30
2019-05-11T00:56:35.352Z,5.80
2019-05-11T00:59:20.695Z,6.80
2019-05-11T01:01:39.376Z,6.10
2019-05-11T01:04:10.486Z,6.43
2019-05-11T01:06:41.877Z,7.33
2019-05-11T01:09:12.917Z,7.10
2019-05-11T01:11:44.164Z,6.50
2019-05-11T01:14:15.212Z,9.00
2019-05-11T01:16:46.551Z,6.20
2019-05-11T01:19:19.165Z,5.83
2019-05-11T01:21:50.586Z,6.23
2019-05-11T01:24:21.727Z,6.53
2019-05-11T01:26:53.044Z,6.70
2019-05-11T01:29:24.164Z,11.20
2019-05-11T01:31:55.473Z,7.57
2019-05-11T01:34:26.516Z,7.93
2019-05-11T01:36:57.860Z,9.23
2019-05-11T01:39:28.869Z,7.20
2019-05-11T01:42:00.252Z,6.27
2019-05-11T01:44:31.278Z,8.83
2019-05-11T01:47:02.644Z,8.20
2019-05-11T01:49:33.794Z,6.53
2019-05-11T01:52:05.086Z,9.43
2019-05-11T01:54:36.130Z,9.23
2019-05-11T01:57:07.430Z,5.90
2019-05-11T01:59:38.433Z,6.73
2019-05-11T02:02:09.718Z,6.00
2019-05-11T02:04:40.745Z,5.70
2019-05-11T02:07:12.827Z,6.00
2019-05-11T02:09:43.904Z,9.77
2019-05-11T02:12:15.220Z,5.90
2019-05-11T02:14:47.241Z,7.73
2019-05-11T02:17:18.540Z,6.10
2019-05-11T02:19:49.600Z,7.63
2019-05-11T02:22:20.921Z,11.50
2019-05-11T02:24:51.974Z,7.20
2019-05-11T02:27:23.419Z,9.47
2019-05-11T02:29:54.482Z,8.70
2019-05-11T02:32:25.737Z,12.80
2019-05-11T02:34:57.164Z,6.80
2019-05-11T02:37:28.609Z,6.40
2019-05-11T02:39:59.731Z,7.90
2019-05-11T02:42:31.013Z,8.30
2019-05-11T02:45:02.252Z,6.67
2019-05-11T02:47:33.762Z,6.17
2019-05-11T02:50:05.399Z,11.10
2019-05-11T02:52:36.709Z,5.80
2019-05-11T02:55:08.060Z,6.50
2019-05-11T02:57:39.723Z,8.50
2019-05-11T03:00:11.600Z,9.07
2019-05-11T03:02:42.830Z,8.53
2019-05-11T03:05:15.507Z,19.20
2019-05-11T03:07:46.764Z,15.00
2019-05-11T03:10:17.839Z,12.83
2019-05-11T03:12:49.256Z,17.63
2019-05-11T03:15:20.363Z,19.10
2019-05-11T03:17:51.646Z,16.00
2019-05-11T03:20:22.696Z,15.70
2019-05-11T03:22:53.938Z,13.40
2019-05-11T03:25:24.959Z,16.50
2019-05-11T03:27:57.193Z,12.70
2019-05-11T03:30:28.229Z,14.60
2019-05-11T03:32:59.539Z,14.93
2019-05-11T03:35:30.571Z,13.93
2019-05-11T03:38:01.950Z,14.40
2019-05-11T03:40:33.024Z,16.30
2019-05-11T03:43:04.429Z,15.03
2019-05-11T03:45:35.671Z,16.50
2019-05-11T03:48:07.022Z,15.67
2019-05-11T03:50:38.051Z,13.63
2019-05-11T03:53:09.736Z,17.13
2019-05-11T03:55:40.769Z,19.13
2019-05-11T03:58:12.115Z,18.93
2019-05-11T04:00:43.359Z,21.43
2019-05-11T04:03:14.727Z,20.57
2019-05-11T04:05:46.330Z,23.50
2019-05-11T04:08:17.717Z,27.23
2019-05-11T04:10:48.745Z,17.27
2019-05-11T04:13:20.213Z,19.37
2019-05-11T04:15:52.316Z,19.77
2019-05-11T04:18:23.753Z,18.70
2019-05-11T04:20:54.901Z,17.97
2019-05-11T04:23:26.224Z,17.50
2019-05-11T04:25:57.253Z,15.87
2019-05-11T04:28:40.512Z,14.10
2019-05-11T04:31:11.571Z,17.00
2019-05-11T04:33:42.894Z,22.93
2019-05-11T04:36:14.113Z,25.57
2019-05-11T04:38:45.491Z,21.73
2019-05-11T04:41:28.152Z,22.43
2019-05-11T04:43:59.447Z,23.43
2019-05-11T04:46:30.480Z,19.77
2019-05-11T04:49:01.960Z,18.73
2019-05-11T04:51:33.046Z,19.17
2019-05-11T04:54:13.140Z,21.23
2019-05-11T04:56:44.469Z,12.50
2019-05-11T04:59:16.043Z,14.73
2019-05-11T05:01:47.286Z,11.47
2019-05-11T05:04:19.509Z,13.13
2019-05-11T05:06:59.628Z,11.13
2019-05-11T05:09:23.511Z,12.33
2019-05-11T05:11:54.620Z,10.60
2019-05-11T05:14:25.995Z,9.17
2019-05-11T05:16:58.293Z,8.43
2019-05-11T05:19:29.500Z,7.87
2019-05-11T05:22:00.796Z,7.90
2019-05-11T05:24:32.204Z,7.93
2019-05-11T05:27:03.521Z,16.03
2019-05-11T05:29:35.103Z,8.70
2019-05-11T05:32:06.158Z,8.13
2019-05-11T05:34:37.703Z,9.77
2019-05-11T05:37:08.714Z,8.50
2019-05-11T05:39:39.984Z,11.93
2019-05-11T05:42:11.330Z,8.77
2019-05-11T05:44:42.591Z,7.17
2019-05-11T05:47:13.927Z,6.57
2019-05-11T05:49:46.492Z,11.90
2019-05-11T05:52:17.508Z,6.90
2019-05-11T05:54:48.803Z,10.73
2019-05-11T05:57:19.874Z,7.60
2019-05-11T05:59:51.197Z,8.93
2019-05-11T06:02:22.818Z,7.43
2019-05-11T06:04:54.096Z,10.00
2019-05-11T06:07:25.142Z,7.83
2019-05-11T06:09:56.695Z,11.63
2019-05-11T06:12:27.714Z,8.73
2019-05-11T06:14:59.104Z,10.43
2019-05-11T06:17:30.185Z,19.83
2019-05-11T06:20:01.962Z,7.43
2019-05-11T06:22:33.594Z,6.43
2019-05-11T06:25:05.220Z,7.10
2019-05-11T06:27:36.242Z,6.00
2019-05-11T06:30:07.855Z,10.23
2019-05-11T06:32:38.950Z,5.00
2019-05-11T06:35:11.662Z,6.23
2019-05-11T06:37:43.127Z,6.30
2019-05-11T06:40:14.756Z,5.27
2019-05-11T06:42:45.842Z,5.77
2019-05-11T06:45:17.026Z,11.00
2019-05-11T06:47:48.169Z,4.70
2019-05-11T06:50:19.515Z,4.50
2019-05-11T06:52:50.588Z,5.70
2019-05-11T06:55:21.821Z,4.77
2019-05-11T06:57:54.135Z,4.57
2019-05-11T07:00:25.842Z,3.53
2019-05-11T07:02:56.855Z,3.77
2019-05-11T07:05:28.141Z,5.40
2019-05-11T07:07:59.170Z,5.70
2019-05-11T07:10:30.431Z,3.47
2019-05-11T07:13:01.588Z,3.63
2019-05-11T07:15:32.923Z,5.07
2019-05-11T07:18:04.036Z,6.37
2019-05-11T07:20:49.459Z,7.67
2019-05-11T07:23:08.043Z,2.93
2019-05-11T07:25:39.537Z,3.17
2019-05-11T07:28:10.615Z,3.33
2019-05-11T07:30:42.051Z,3.83
2019-05-11T07:33:13.110Z,3.00
2019-05-11T07:35:44.324Z,2.60
2019-05-11T07:38:15.400Z,5.17
2019-05-11T07:40:47.685Z,2.80
2019-05-11T07:43:19.053Z,2.80
2019-05-11T07:45:50.455Z,3.70
2019-05-11T07:48:21.680Z,2.40
2019-05-11T07:50:52.934Z,2.60
2019-05-11T07:53:24.262Z,3.13
2019-05-11T07:55:57.551Z,3.77
2019-05-11T07:58:28.593Z,7.60
2019-05-11T08:01:00.080Z,2.97
2019-05-11T08:03:31.088Z,3.50
2019-05-11T08:06:02.970Z,2.50
2019-05-11T08:08:34.330Z,3.63
2019-05-11T08:11:07.945Z,5.33
2019-05-11T08:13:38.980Z,3.13
2019-05-11T08:16:10.622Z,12.13
2019-05-11T08:18:41.693Z,7.10
2019-05-11T08:21:13.022Z,5.83
2019-05-11T08:23:44.107Z,5.50
2019-05-11T08:26:15.412Z,3.93
2019-05-11T08:28:48.614Z,3.23
2019-05-11T08:31:19.542Z,3.00
2019-05-11T08:33:50.561Z,7.63
2019-05-11T08:36:22.040Z,2.40
2019-05-11T08:38:53.172Z,2.70
2019-05-11T08:41:24.431Z,2.60
2019-05-11T08:43:55.722Z,2.83
2019-05-11T08:46:27.967Z,2.83
2019-05-11T08:48:59.628Z,4.23
2019-05-11T08:51:31.055Z,2.20
2019-05-11T08:54:02.099Z,2.10
2019-05-11T08:56:38.292Z,3.57
2019-05-11T08:59:10.053Z,2.37
2019-05-11T09:01:41.276Z,6.80
2019-05-11T09:04:12.340Z,5.63
2019-05-11T09:06:44.786Z,3.30
2019-05-11T09:09:17.923Z,2.97
2019-05-11T09:11:48.925Z,8.23
2019-05-11T09:14:21.132Z,4.00
2019-05-11T09:16:52.746Z,4.20
2019-05-11T09:19:23.776Z,9.23
2019-05-11T09:21:55.145Z,3.83
2019-05-11T09:24:28.190Z,3.83
2019-05-11T09:26:59.376Z,3.00
2019-05-11T09:29:30.432Z,7.63
2019-05-11T09:32:01.767Z,2.80
2019-05-11T09:34:32.973Z,6.00
2019-05-11T09:37:04.491Z,4.20
2019-05-11T09:39:35.503Z,1.67
2019-05-11T09:42:09.825Z,3.67
2019-05-11T09:44:41.152Z,3.93
2019-05-11T09:47:12.438Z,1.63
2019-05-11T09:49:47.837Z,3.13
2019-05-11T09:52:18.400Z,1.20
2019-05-11T09:54:49.470Z,2.50
2019-05-11T09:57:20.797Z,1.10
2019-05-11T09:59:51.880Z,1.10
2019-05-11T10:02:24.104Z,1.10
2019-05-11T10:04:55.122Z,1.00
2019-05-11T10:07:28.443Z,1.37
2019-05-11T10:09:59.121Z,8.03
2019-05-11T10:12:30.644Z,1.63
2019-05-11T10:15:01.720Z,1.90
2019-05-11T10:17:32.924Z,1.83
2019-05-11T10:20:04.272Z,2.20
2019-05-11T10:22:49.076Z,1.47
2019-05-11T10:25:20.145Z,2.10
2019-05-11T10:27:51.642Z,1.23
2019-05-11T10:30:22.848Z,2.30
2019-05-11T10:32:54.123Z,6.30
2019-05-11T10:35:25.191Z,1.30
2019-05-11T10:37:58.332Z,1.10
2019-05-11T10:40:29.106Z,3.67
2019-05-11T10:43:00.362Z,3.70
2019-05-11T10:45:31.478Z,1.20
2019-05-11T10:48:02.734Z,1.07
2019-05-11T10:50:33.767Z,2.00
2019-05-11T10:53:05.035Z,2.07
2019-05-11T10:55:38.709Z,2.00
2019-05-11T10:58:11.124Z,1.40
2019-05-11T11:00:42.384Z,3.20
2019-05-11T11:03:13.698Z,3.03
2019-05-11T11:05:45.040Z,2.50
2019-05-11T11:08:18.397Z,3.13
2019-05-11T11:10:49.267Z,3.50
2019-05-11T11:13:20.758Z,2.40
2019-05-11T11:15:51.768Z,3.33
2019-05-11T11:18:23.127Z,3.37
2019-05-11T11:20:54.182Z,8.37
2019-05-11T11:23:25.516Z,1.43
2019-05-11T11:25:58.571Z,7.03
2019-05-11T11:28:29.558Z,3.00
2019-05-11T11:31:00.630Z,1.93
2019-05-11T11:33:31.848Z,1.63
2019-05-11T11:36:02.905Z,1.43
2019-05-11T11:38:34.150Z,6.00
2019-05-11T11:41:07.470Z,1.37
2019-05-11T11:43:38.049Z,3.33
2019-05-11T11:46:09.142Z,8.83
2019-05-11T11:48:40.284Z,2.70
2019-05-11T11:51:11.325Z,6.30
2019-05-11T11:53:42.559Z,2.53
2019-05-11T11:56:13.603Z,1.20
2019-05-11T11:58:44.839Z,3.97
2019-05-11T12:01:18.669Z,1.20
2019-05-11T12:03:49.137Z,1.30
2019-05-11T12:06:20.287Z,2.00
2019-05-11T12:08:51.664Z,1.20
2019-05-11T12:11:22.801Z,1.57
2019-05-11T12:13:54.054Z,1.10
2019-05-11T12:16:25.319Z,1.50
2019-05-11T12:18:57.779Z,1.43
2019-05-11T12:21:29.009Z,2.50
2019-05-11T12:24:00.353Z,1.90
2019-05-11T12:26:31.391Z,2.40
2019-05-11T12:29:02.658Z,2.20
2019-05-11T12:31:33.715Z,1.30
2019-05-11T12:34:05.502Z,2.67
2019-05-11T12:36:38.595Z,3.97
2019-05-11T12:39:09.601Z,2.67
2019-05-11T12:41:40.640Z,1.47
2019-05-11T12:44:11.885Z,1.83
2019-05-11T12:46:42.905Z,3.77
2019-05-11T12:49:14.191Z,1.37
2019-05-11T12:51:45.183Z,1.40
2019-05-11T12:54:18.572Z,1.20
2019-05-11T12:56:49.283Z,3.53
2019-05-11T12:59:20.599Z,1.37
2019-05-11T13:01:51.643Z,1.30
2019-05-11T13:04:22.897Z,4.00
2019-05-11T13:06:53.917Z,1.63
2019-05-11T13:09:25.171Z,1.47
2019-05-11T13:11:58.526Z,2.63
2019-05-11T13:14:29.108Z,6.43
2019-05-11T13:17:00.159Z,0.90
2019-05-11T13:19:31.311Z,2.13
2019-05-11T13:22:02.342Z,2.00
2019-05-11T13:24:34.092Z,1.53
2019-05-11T13:27:05.224Z,0.90
2019-05-11T13:29:37.880Z,1.30
2019-05-11T13:32:09.411Z,2.70
2019-05-11T13:34:40.630Z,2.03
2019-05-11T13:37:11.708Z,5.43
2019-05-11T13:39:42.827Z,1.17
2019-05-11T13:42:13.896Z,1.47
2019-05-11T13:44:45.105Z,1.33
2019-05-11T13:47:18.067Z,1.10
2019-05-11T13:49:49.123Z,4.03
2019-05-11T13:52:20.164Z,0.90
2019-05-11T13:54:51.369Z,1.20
2019-05-11T13:57:22.378Z,0.90
2019-05-11T13:59:53.909Z,1.20
2019-05-11T14:02:24.926Z,3.20
2019-05-11T14:04:58.231Z,2.77
2019-05-11T14:07:28.918Z,0.97
2019-05-11T14:10:00.345Z,0.90
2019-05-11T14:12:31.475Z,1.37
2019-05-11T14:15:03.031Z,4.27
2019-05-11T14:17:34.310Z,3.03
2019-05-11T14:20:08.855Z,1.03
2019-05-11T14:22:39.923Z,1.30
2019-05-11T14:25:11.204Z,0.80
2019-05-11T14:27:42.333Z,2.13
2019-05-11T14:30:13.797Z,1.47
2019-05-11T14:32:45.077Z,2.97
2019-05-11T14:35:18.607Z,0.90
2019-05-11T14:37:49.197Z,0.90
2019-05-11T14:40:20.555Z,0.80
2019-05-11T14:42:51.971Z,2.23
2019-05-11T14:45:42.268Z,1.27
2019-05-11T14:48:24.238Z,0.90
2019-05-11T14:50:48.720Z,7.40
2019-05-11T14:53:19.027Z,2.20
2019-05-11T14:55:50.427Z,0.80
2019-05-11T14:58:21.495Z,3.30
2019-05-11T15:00:52.740Z,2.97
2019-05-11T15:03:23.760Z,1.33
2019-05-11T15:05:55.211Z,5.77
2019-05-11T15:08:28.471Z,0.80
2019-05-11T15:10:59.297Z,0.80
2019-05-11T15:13:30.411Z,2.30
2019-05-11T15:16:01.771Z,2.40
2019-05-11T15:18:38.554Z,0.90
2019-05-11T15:21:08.079Z,1.40
2019-05-11T15:23:38.775Z,0.80
2019-05-11T15:26:10.210Z,1.20
2019-05-11T15:28:41.318Z,0.80
2019-05-11T15:31:12.475Z,3.23
2019-05-11T15:33:43.519Z,0.90
2019-05-11T15:36:14.889Z,1.27
2019-05-11T15:38:47.981Z,0.80
2019-05-11T15:41:19.045Z,0.80
2019-05-11T15:43:50.092Z,0.77
2019-05-11T15:46:21.317Z,0.80
2019-05-11T15:49:02.144Z,1.10
2019-05-11T15:51:29.144Z,0.90
2019-05-11T15:54:00.485Z,0.80
2019-05-11T15:56:31.857Z,0.90
2019-05-11T15:59:02.921Z,0.90
2019-05-11T16:01:34.227Z,5.23
2019-05-11T16:04:05.283Z,2.40
2019-05-11T16:06:36.421Z,0.70
2019-05-11T16:09:08.460Z,0.90
2019-05-11T16:11:41.990Z,0.80
2019-05-11T16:14:13.159Z,0.87
2019-05-11T16:16:44.339Z,1.00
2019-05-11T16:19:15.510Z,0.90
2019-05-11T16:21:47.889Z,0.80
2019-05-11T16:24:21.773Z,0.90
2019-05-11T16:26:53.168Z,0.80
2019-05-11T16:29:24.216Z,1.10
2019-05-11T16:31:57.667Z,1.10
2019-05-11T16:34:28.095Z,1.17
2019-05-11T16:36:59.469Z,1.00
2019-05-11T16:39:30.675Z,1.00
2019-05-11T16:42:18.585Z,1.00
2019-05-11T16:44:49.644Z,2.20
2019-05-11T16:47:21.863Z,1.10
2019-05-11T16:49:52.947Z,1.10
2019-05-11T16:52:24.347Z,1.00
2019-05-11T16:54:55.392Z,1.13
2019-05-11T16:57:26.647Z,0.80
2019-05-11T16:59:58.501Z,0.97
2019-05-11T17:02:30.513Z,1.87
2019-05-11T17:05:01.953Z,0.97
2019-05-11T17:07:34.097Z,0.90
2019-05-11T17:10:05.359Z,1.53
2019-05-11T17:12:38.567Z,1.67
2019-05-11T17:15:09.847Z,1.17
2019-05-11T17:17:41.235Z,1.20
2019-05-11T17:20:12.444Z,1.00
2019-05-11T17:22:43.741Z,1.00
2019-05-11T17:25:14.831Z,1.10
2019-05-11T17:27:48.790Z,1.17
2019-05-11T17:30:19.592Z,1.00
2019-05-11T17:32:51.696Z,1.00
2019-05-11T17:35:22.730Z,1.00
2019-05-11T17:37:53.919Z,4.97
2019-05-11T17:40:25.047Z,1.30
2019-05-11T17:42:58.364Z,1.03
2019-05-11T17:45:29.043Z,1.13
2019-05-11T17:48:00.300Z,1.10
2019-05-11T17:50:31.361Z,1.30
2019-05-11T17:53:02.587Z,1.00
2019-05-11T17:55:33.750Z,1.10
2019-05-11T17:58:05.099Z,1.13
2019-05-11T18:00:39.017Z,1.00
2019-05-11T18:03:11.177Z,1.37
2019-05-11T18:05:41.945Z,1.30
2019-05-11T18:08:13.360Z,1.40
2019-05-11T18:10:47.779Z,1.57
2019-05-11T18:13:18.202Z,1.40
2019-05-11T18:15:49.422Z,1.27
2019-05-11T18:18:23.903Z,1.10
2019-05-11T18:20:53.429Z,1.47
2019-05-11T18:23:35.888Z,1.50
2019-05-11T18:26:08.854Z,1.40
2019-05-11T18:28:40.011Z,1.50
2019-05-11T18:31:11.033Z,2.90
2019-05-11T18:33:42.268Z,1.50
2019-05-11T18:36:13.313Z,1.50
2019-05-11T18:38:44.607Z,2.90
2019-05-11T18:41:15.673Z,1.60
2019-05-11T18:43:48.360Z,1.47
2019-05-11T18:46:19.693Z,1.70
2019-05-11T18:48:50.976Z,1.50
2019-05-11T18:51:21.985Z,2.20
2019-05-11T18:53:53.313Z,1.20
2019-05-11T18:56:24.333Z,1.60
2019-05-11T18:58:55.603Z,1.57
2019-05-11T19:01:28.588Z,1.20
2019-05-11T19:04:00.178Z,1.10
2019-05-11T19:06:31.495Z,1.30
2019-05-11T19:09:02.640Z,1.40
2019-05-11T20:00:59.839Z,1.60
2019-05-11T20:03:30.892Z,6.67
2019-05-11T20:06:02.203Z,1.60
2019-05-11T20:08:35.761Z,1.30
2019-05-11T20:11:09.511Z,1.20
2019-05-11T20:13:40.647Z,1.30
2019-05-11T20:16:11.931Z,1.60
2019-05-11T20:18:42.946Z,1.60
2019-05-11T20:21:19.330Z,1.80
2019-05-11T20:23:48.489Z,1.80
2019-05-11T20:26:20.109Z,5.80
2019-05-11T20:28:51.145Z,2.17
2019-05-11T20:31:22.401Z,1.83
2019-05-11T20:33:57.041Z,1.80
2019-05-11T20:36:28.359Z,1.80
2019-05-11T20:38:59.433Z,1.80
2019-05-11T20:41:30.764Z,2.33
2019-05-11T20:44:01.895Z,2.10
2019-05-11T20:46:33.782Z,2.13
2019-05-11T20:49:04.911Z,1.90
2019-05-11T20:51:37.192Z,2.90
2019-05-11T20:54:08.989Z,2.23
2019-05-11T20:56:40.721Z,3.03
2019-05-11T20:59:12.559Z,2.60
2019-05-11T21:01:45.054Z,2.63
2019-05-11T21:04:18.633Z,4.30
2019-05-11T21:06:49.271Z,3.23
2019-05-11T21:09:20.440Z,2.87
2019-05-11T21:11:51.765Z,3.27
2019-05-11T21:14:22.866Z,3.53
2019-05-11T21:16:54.075Z,3.53
2019-05-11T21:19:25.140Z,3.07
2019-05-11T21:21:58.747Z,3.00
2019-05-11T21:24:29.436Z,3.20
2019-05-11T21:27:00.786Z,3.50
2019-05-11T21:29:32.003Z,7.00
2019-05-11T21:32:03.382Z,4.47
2019-05-11T21:34:38.210Z,6.47
2019-05-11T21:37:09.904Z,4.90
2019-05-11T21:39:40.934Z,5.07
2019-05-11T21:42:12.270Z,8.33
2019-05-11T21:44:43.309Z,4.90
2019-05-11T21:47:14.655Z,5.50
2019-05-11T21:49:45.684Z,6.13
2019-05-11T21:52:18.218Z,6.30
2019-05-11T21:54:49.536Z,6.73
2019-05-11T21:57:21.282Z,9.33
2019-05-11T21:59:52.412Z,6.40
2019-05-11T22:02:23.507Z,6.93
2019-05-11T22:04:54.621Z,10.37
2019-05-11T22:07:38.721Z,7.97
2019-05-11T22:10:10.496Z,7.63
2019-05-11T22:12:41.984Z,11.73
2019-05-11T22:15:13.364Z,7.63
2019-05-11T22:17:44.790Z,7.73
2019-05-11T22:20:18.165Z,7.63
2019-05-11T22:22:49.118Z,9.03
2019-05-11T22:25:20.125Z,8.57
2019-05-11T22:27:51.499Z,9.00
2019-05-11T22:30:22.509Z,10.80
2019-05-11T22:32:53.912Z,9.30
2019-05-11T22:35:25.227Z,7.90
2019-05-11T22:37:57.807Z,13.00
2019-05-11T22:40:29.107Z,10.60
2019-05-11T22:43:01.288Z,10.17
2019-05-11T22:45:32.621Z,9.90
2019-05-11T22:48:03.943Z,10.57
2019-05-11T22:50:37.976Z,12.27
2019-05-11T22:53:11.499Z,11.00
2019-05-11T22:55:43.213Z,9.60
2019-05-11T22:58:14.461Z,9.43
2019-05-11T23:00:45.925Z,9.13
2019-05-11T23:03:28.715Z,8.53
2019-05-11T23:05:59.875Z,14.23
2019-05-11T23:08:31.343Z,11.60
2019-05-11T23:11:05.413Z,12.37
2019-05-11T23:13:38.241Z,17.90
2019-05-11T23:16:09.424Z,12.87
2019-05-11T23:18:40.829Z,13.50
2019-05-11T23:21:11.889Z,12.17
2019-05-11T23:23:43.078Z,14.20
2019-05-11T23:26:14.291Z,10.53
2019-05-11T23:28:45.623Z,16.67
2019-05-11T23:31:16.671Z,13.67
2019-05-11T23:33:49.127Z,14.73
2019-05-11T23:36:20.174Z,13.90
2019-05-11T23:38:51.526Z,13.10
2019-05-11T23:41:24.638Z,15.60
2019-05-11T23:43:55.559Z,14.93
2019-05-11T23:46:28.512Z,15.10
2019-05-11T23:48:59.482Z,15.53
2019-05-11T23:51:30.513Z,13.47
2019-05-11T23:54:01.761Z,15.93
2019-05-11T23:56:33.162Z,14.00
2019-05-11T23:59:04.308Z,14.23
